createdAt,value
2019-02-26T00:04:53.963Z,31.9
2019-02-26T00:14:52.906Z,33.3
2019-02-26T00:24:50.257Z,43.1
2019-02-26T00:34:49.453Z,32.9
2019-02-26T00:44:51.298Z,32.1
2019-02-26T00:54:47.858Z,36.4
2019-02-26T01:04:48.530Z,46.3
2019-02-26T01:14:47.944Z,40.6
2019-02-26T01:24:45.462Z,41.4
2019-02-26T01:34:45.670Z,30.8
2019-02-26T01:44:44.463Z,33.4
2019-02-26T01:54:43.065Z,43.1
2019-02-26T02:04:43.458Z,32.3
2019-02-26T02:14:41.470Z,33.8
2019-02-26T02:24:41.803Z,39.5
2019-02-26T02:34:42.869Z,43.4
2019-02-26T02:44:41.020Z,33.3
2019-02-26T02:54:39.189Z,34.2
2019-02-26T03:04:37.476Z,44.5
2019-02-26T03:14:39.046Z,41.7
2019-02-26T03:24:35.994Z,40.9
2019-02-26T03:34:35.079Z,30.5
2019-02-26T03:44:34.306Z,27
2019-02-26T03:54:37.040Z,36.8
2019-02-26T04:04:33.712Z,38.6
2019-02-26T04:14:31.882Z,47.6
2019-02-26T04:24:33.072Z,30.8
2019-02-26T04:36:22.385Z,33.3
2019-02-26T04:46:21.290Z,36.7
2019-02-26T04:56:20.489Z,41.9
2019-02-26T05:06:19.684Z,42.1
2019-02-26T05:16:18.883Z,28.8
2019-02-26T05:26:20.388Z,25.3
2019-02-26T05:36:17.448Z,42.7
2019-02-26T05:46:18.955Z,40.8
2019-02-26T05:56:17.128Z,40.8
2019-02-26T06:06:15.246Z,43.3
2019-02-26T06:16:14.533Z,33.7
2019-02-26T06:26:14.940Z,26
2019-02-26T06:36:12.979Z,27.6
2019-02-26T06:46:14.012Z,34
2019-02-26T06:56:11.387Z,28.1
2019-02-26T07:06:10.590Z,25.4
2019-02-26T07:16:09.792Z,23.4
2019-02-26T07:26:08.998Z,23.6
2019-02-26T07:36:08.199Z,21.6
2019-02-26T07:46:09.422Z,21.9
2019-02-26T07:56:08.492Z,21.6
2019-02-26T08:06:09.113Z,22.8
2019-02-26T08:16:06.167Z,22
2019-02-26T08:26:05.370Z,22.4
2019-02-26T08:36:04.576Z,21.7
2019-02-26T08:46:03.796Z,22.6
2019-02-26T08:56:03.995Z,25.4
2019-02-26T09:06:10.785Z,25
2019-02-26T09:16:03.005Z,24.8
2019-02-26T09:26:02.516Z,23.6
2019-02-26T09:35:59.800Z,24.4
2019-02-26T09:46:18.989Z,24.3
2019-02-26T09:55:58.209Z,25.6
2019-02-26T10:05:57.954Z,27.3
2019-02-26T10:15:58.709Z,30.2
2019-02-26T10:25:57.792Z,26.6
2019-02-26T10:35:55.073Z,23.3
2019-02-26T10:45:54.856Z,27.3
2019-02-26T10:55:53.479Z,33.6
2019-02-26T11:05:52.641Z,41.4
2019-02-26T11:15:53.837Z,38.8
2019-02-26T11:25:51.035Z,39.4
2019-02-26T11:35:51.441Z,29.9
2019-02-26T11:45:49.492Z,30.3
2019-02-26T11:55:49.819Z,25.4
2019-02-26T12:05:47.845Z,24.6
2019-02-26T12:15:47.048Z,24.4
2019-02-26T12:25:47.084Z,39.5
2019-02-26T12:35:45.452Z,38.8
2019-02-26T12:45:44.655Z,38.8
2019-02-26T12:55:43.864Z,42.4
2019-02-26T13:05:45.487Z,31.5
2019-02-26T13:16:56.953Z,30.2
2019-02-26T13:26:59.161Z,28.3
2019-02-26T13:37:58.149Z,30.6
2019-02-26T13:48:00.672Z,42.8
2019-02-26T13:57:56.554Z,39.3
2019-02-26T14:07:55.760Z,38.9
2019-02-26T14:17:54.962Z,42.7
2019-02-26T14:27:54.168Z,42.9
2019-02-26T14:37:53.370Z,40.4
2019-02-26T14:47:52.621Z,40.1
2019-02-26T14:57:51.779Z,40.1
2019-02-26T15:07:50.979Z,40.1
2019-02-26T15:17:50.182Z,39.9
2019-02-26T15:27:49.386Z,39.8
2019-02-26T15:37:48.592Z,39.8
2019-02-26T15:47:47.845Z,39.6
2019-02-26T15:57:47.001Z,39.4
2019-02-26T16:07:46.209Z,39.3
2019-02-26T16:17:45.408Z,39.3
2019-02-26T16:27:44.611Z,39.3
2019-02-26T16:37:43.814Z,39.3
2019-02-26T16:47:43.027Z,39.1
2019-02-26T16:57:42.222Z,38.9
2019-02-26T17:07:41.476Z,38.9
2019-02-26T17:17:40.688Z,38.9
2019-02-26T17:27:39.836Z,38.8
2019-02-26T17:37:41.200Z,38.9
2019-02-26T17:47:38.301Z,39.1
2019-02-26T17:57:37.503Z,39.2
2019-02-26T18:07:38.486Z,39.1
2019-02-26T18:17:35.911Z,39.2
2019-02-26T18:27:35.064Z,25.7
2019-02-26T18:37:34.323Z,36.4
2019-02-26T18:47:33.468Z,37.9
2019-02-26T18:57:32.722Z,38
2019-02-26T19:07:33.779Z,30.3
2019-02-26T19:17:31.127Z,29.8
2019-02-26T19:27:30.282Z,27.1
2019-02-26T19:37:29.539Z,32.4
2019-02-26T19:47:28.744Z,37.1
2019-02-26T19:57:30.213Z,38.1
2019-02-26T20:07:27.103Z,38.3
2019-02-26T20:17:26.306Z,40.6
2019-02-26T20:27:25.511Z,32
2019-02-26T20:37:24.974Z,26.9
2019-02-26T20:47:23.918Z,33.4
2019-02-26T20:57:23.121Z,37.8
2019-02-26T21:16:15.414Z,37.2
2019-02-26T21:26:14.616Z,40.1
2019-02-26T21:36:13.819Z,40.6
2019-02-26T21:46:13.025Z,28.7
2019-02-26T21:56:15.434Z,28.7
2019-02-26T22:06:11.542Z,25.7
2019-02-26T22:16:10.726Z,34.1
2019-02-26T22:26:10.060Z,43.3
2019-02-26T22:36:09.349Z,38.4
2019-02-26T22:46:08.581Z,39
2019-02-26T22:56:07.865Z,41.7
2019-02-26T23:06:07.159Z,31.3
2019-02-26T23:16:06.310Z,28.1
2019-02-26T23:26:08.589Z,25.9
2019-02-26T23:36:04.715Z,34
2019-02-26T23:46:03.967Z,38.7
2019-02-26T23:56:03.118Z,41.5
